sensor_id;sensor_type;location;lat;lon;timestamp;P1;durP1;ratioP1;P2;durP2;ratioP2
42246;SDS011;27913;42.722;23.268;2022-08-19T00:03:59;4.63;;;2.28;;
42246;SDS011;27913;42.722;23.268;2022-08-19T00:06:28;5.70;;;3.03;;
42246;SDS011;27913;42.722;23.268;2022-08-19T00:08:55;6.15;;;2.53;;
42246;SDS011;27913;42.722;23.268;2022-08-19T00:11:21;6.00;;;2.50;;
42246;SDS011;27913;42.722;23.268;2022-08-19T00:13:47;6.07;;;3.10;;
42246;SDS011;27913;42.722;23.268;2022-08-19T00:16:15;6.88;;;2.95;;
42246;SDS011;27913;42.722;23.268;2022-08-19T00:18:44;6.32;;;2.97;;
42246;SDS011;27913;42.722;23.268;2022-08-19T00:21:10;5.50;;;2.88;;
42246;SDS011;27913;42.722;23.268;2022-08-19T00:23:35;5.25;;;2.60;;
42246;SDS011;27913;42.722;23.268;2022-08-19T00:26:02;4.78;;;2.63;;
42246;SDS011;27913;42.722;23.268;2022-08-19T00:28:29;5.80;;;2.58;;
42246;SDS011;27913;42.722;23.268;2022-08-19T00:30:55;4.93;;;2.58;;
42246;SDS011;27913;42.722;23.268;2022-08-19T00:33:21;5.57;;;2.58;;
42246;SDS011;27913;42.722;23.268;2022-08-19T00:35:46;5.45;;;2.50;;
42246;SDS011;27913;42.722;23.268;2022-08-19T00:38:12;5.07;;;2.75;;
42246;SDS011;27913;42.722;23.268;2022-08-19T00:40:38;5.82;;;3.00;;
42246;SDS011;27913;42.722;23.268;2022-08-19T00:43:10;5.97;;;2.70;;
42246;SDS011;27913;42.722;23.268;2022-08-19T00:45:41;6.80;;;2.75;;
42246;SDS011;27913;42.722;23.268;2022-08-19T00:48:08;5.13;;;2.75;;
42246;SDS011;27913;42.722;23.268;2022-08-19T00:50:34;4.97;;;2.60;;
42246;SDS011;27913;42.722;23.268;2022-08-19T00:53:00;5.38;;;2.50;;
42246;SDS011;27913;42.722;23.268;2022-08-19T00:55:29;4.80;;;2.78;;
42246;SDS011;27913;42.722;23.268;2022-08-19T00:57:58;5.25;;;2.75;;
42246;SDS011;27913;42.722;23.268;2022-08-19T01:00:27;5.60;;;2.97;;
42246;SDS011;27913;42.722;23.268;2022-08-19T01:02:53;4.93;;;2.72;;
42246;SDS011;27913;42.722;23.268;2022-08-19T01:05:21;5.00;;;2.58;;
42246;SDS011;27913;42.722;23.268;2022-08-19T01:07:49;6.68;;;3.13;;
42246;SDS011;27913;42.722;23.268;2022-08-19T01:10:17;5.30;;;2.47;;
42246;SDS011;27913;42.722;23.268;2022-08-19T01:12:46;4.53;;;2.40;;
42246;SDS011;27913;42.722;23.268;2022-08-19T01:15:14;5.68;;;2.53;;
42246;SDS011;27913;42.722;23.268;2022-08-19T01:17:41;6.32;;;2.92;;
42246;SDS011;27913;42.722;23.268;2022-08-19T01:20:16;5.55;;;2.65;;
42246;SDS011;27913;42.722;23.268;2022-08-19T01:22:46;4.90;;;2.60;;
42246;SDS011;27913;42.722;23.268;2022-08-19T01:25:15;4.82;;;2.80;;
42246;SDS011;27913;42.722;23.268;2022-08-19T01:27:44;4.85;;;2.60;;
42246;SDS011;27913;42.722;23.268;2022-08-19T01:30:13;4.72;;;2.38;;
42246;SDS011;27913;42.722;23.268;2022-08-19T01:32:41;6.40;;;2.70;;
42246;SDS011;27913;42.722;23.268;2022-08-19T01:35:08;5.95;;;2.33;;
42246;SDS011;27913;42.722;23.268;2022-08-19T01:37:46;4.63;;;2.45;;
42246;SDS011;27913;42.722;23.268;2022-08-19T01:40:13;4.82;;;2.65;;
42246;SDS011;27913;42.722;23.268;2022-08-19T01:42:41;5.25;;;2.80;;
42246;SDS011;27913;42.722;23.268;2022-08-19T01:45:07;6.25;;;2.67;;
42246;SDS011;27913;42.722;23.268;2022-08-19T01:47:34;6.57;;;2.75;;
42246;SDS011;27913;42.722;23.268;2022-08-19T01:50:01;4.95;;;2.17;;
42246;SDS011;27913;42.722;23.268;2022-08-19T01:52:27;6.63;;;2.60;;
42246;SDS011;27913;42.722;23.268;2022-08-19T01:54:52;5.78;;;2.83;;
42246;SDS011;27913;42.722;23.268;2022-08-19T01:57:18;9.40;;;2.60;;
42246;SDS011;27913;42.722;23.268;2022-08-19T01:59:44;4.75;;;2.45;;
42246;SDS011;27913;42.722;23.268;2022-08-19T02:02:10;5.20;;;2.45;;
42246;SDS011;27913;42.722;23.268;2022-08-19T02:04:36;5.60;;;2.78;;
42246;SDS011;27913;42.722;23.268;2022-08-19T02:07:03;4.85;;;2.60;;
42246;SDS011;27913;42.722;23.268;2022-08-19T02:09:30;5.55;;;2.63;;
42246;SDS011;27913;42.722;23.268;2022-08-19T02:11:56;4.10;;;2.60;;
42246;SDS011;27913;42.722;23.268;2022-08-19T02:14:21;5.63;;;2.72;;
42246;SDS011;27913;42.722;23.268;2022-08-19T02:16:48;5.20;;;2.83;;
42246;SDS011;27913;42.722;23.268;2022-08-19T02:19:13;6.03;;;3.10;;
42246;SDS011;27913;42.722;23.268;2022-08-19T02:21:39;9.70;;;3.00;;
42246;SDS011;27913;42.722;23.268;2022-08-19T02:24:05;6.55;;;2.97;;
42246;SDS011;27913;42.722;23.268;2022-08-19T02:26:31;7.03;;;2.92;;
42246;SDS011;27913;42.722;23.268;2022-08-19T02:28:57;4.22;;;2.55;;
42246;SDS011;27913;42.722;23.268;2022-08-19T02:31:24;5.18;;;2.85;;
42246;SDS011;27913;42.722;23.268;2022-08-19T02:33:50;6.93;;;2.70;;
42246;SDS011;27913;42.722;23.268;2022-08-19T02:36:17;5.68;;;3.08;;
42246;SDS011;27913;42.722;23.268;2022-08-19T02:38:43;5.88;;;3.00;;
42246;SDS011;27913;42.722;23.268;2022-08-19T02:41:14;5.13;;;2.75;;
42246;SDS011;27913;42.722;23.268;2022-08-19T02:43:41;5.10;;;2.72;;
42246;SDS011;27913;42.722;23.268;2022-08-19T02:46:11;7.95;;;3.03;;
42246;SDS011;27913;42.722;23.268;2022-08-19T02:48:46;5.05;;;2.85;;
42246;SDS011;27913;42.722;23.268;2022-08-19T02:51:19;5.10;;;2.70;;
42246;SDS011;27913;42.722;23.268;2022-08-19T02:53:47;6.07;;;3.25;;
42246;SDS011;27913;42.722;23.268;2022-08-19T02:56:13;8.02;;;2.80;;
42246;SDS011;27913;42.722;23.268;2022-08-19T02:58:38;6.35;;;3.25;;
42246;SDS011;27913;42.722;23.268;2022-08-19T03:01:04;6.55;;;3.28;;
42246;SDS011;27913;42.722;23.268;2022-08-19T03:03:29;6.53;;;3.08;;
42246;SDS011;27913;42.722;23.268;2022-08-19T03:06:05;7.50;;;3.55;;
42246;SDS011;27913;42.722;23.268;2022-08-19T03:08:35;5.60;;;3.27;;
42246;SDS011;27913;42.722;23.268;2022-08-19T03:11:02;7.20;;;3.50;;
42246;SDS011;27913;42.722;23.268;2022-08-19T03:13:28;6.20;;;2.85;;
42246;SDS011;27913;42.722;23.268;2022-08-19T03:15:54;5.85;;;3.08;;
42246;SDS011;27913;42.722;23.268;2022-08-19T03:18:19;7.72;;;3.78;;
42246;SDS011;27913;42.722;23.268;2022-08-19T03:20:46;5.30;;;3.25;;
42246;SDS011;27913;42.722;23.268;2022-08-19T03:23:13;7.18;;;3.33;;
42246;SDS011;27913;42.722;23.268;2022-08-19T03:25:42;5.57;;;2.85;;
42246;SDS011;27913;42.722;23.268;2022-08-19T03:28:13;5.60;;;3.25;;
42246;SDS011;27913;42.722;23.268;2022-08-19T03:30:40;5.90;;;3.10;;
42246;SDS011;27913;42.722;23.268;2022-08-19T03:33:09;6.85;;;3.00;;
42246;SDS011;27913;42.722;23.268;2022-08-19T03:35:37;5.32;;;2.97;;
42246;SDS011;27913;42.722;23.268;2022-08-19T03:38:03;5.95;;;3.33;;
42246;SDS011;27913;42.722;23.268;2022-08-19T03:40:30;6.45;;;3.20;;
42246;SDS011;27913;42.722;23.268;2022-08-19T03:42:56;7.38;;;3.67;;
42246;SDS011;27913;42.722;23.268;2022-08-19T03:45:22;7.05;;;3.72;;
42246;SDS011;27913;42.722;23.268;2022-08-19T03:47:48;7.13;;;3.38;;
42246;SDS011;27913;42.722;23.268;2022-08-19T03:50:14;6.57;;;3.40;;
42246;SDS011;27913;42.722;23.268;2022-08-19T03:52:39;6.55;;;3.50;;
42246;SDS011;27913;42.722;23.268;2022-08-19T03:55:06;8.70;;;4.07;;
42246;SDS011;27913;42.722;23.268;2022-08-19T03:57:32;6.57;;;3.40;;
42246;SDS011;27913;42.722;23.268;2022-08-19T03:59:59;9.43;;;5.03;;
42246;SDS011;27913;42.722;23.268;2022-08-19T04:02:25;12.48;;;6.30;;
42246;SDS011;27913;42.722;23.268;2022-08-19T04:04:52;10.90;;;4.45;;
42246;SDS011;27913;42.722;23.268;2022-08-19T04:07:19;8.98;;;4.50;;
42246;SDS011;27913;42.722;23.268;2022-08-19T04:09:46;7.63;;;4.22;;
42246;SDS011;27913;42.722;23.268;2022-08-19T04:12:13;8.77;;;3.97;;
42246;SDS011;27913;42.722;23.268;2022-08-19T04:14:39;6.43;;;3.53;;
42246;SDS011;27913;42.722;23.268;2022-08-19T04:17:06;6.93;;;3.85;;
42246;SDS011;27913;42.722;23.268;2022-08-19T04:19:32;6.65;;;3.33;;
42246;SDS011;27913;42.722;23.268;2022-08-19T04:21:59;6.13;;;3.55;;
42246;SDS011;27913;42.722;23.268;2022-08-19T04:24:25;6.35;;;3.53;;
42246;SDS011;27913;42.722;23.268;2022-08-19T04:26:50;6.47;;;3.47;;
42246;SDS011;27913;42.722;23.268;2022-08-19T04:29:18;6.78;;;3.25;;
42246;SDS011;27913;42.722;23.268;2022-08-19T04:31:46;7.85;;;3.50;;
42246;SDS011;27913;42.722;23.268;2022-08-19T04:34:13;7.75;;;3.33;;
42246;SDS011;27913;42.722;23.268;2022-08-19T04:36:41;8.73;;;3.13;;
42246;SDS011;27913;42.722;23.268;2022-08-19T04:39:17;6.22;;;3.33;;
42246;SDS011;27913;42.722;23.268;2022-08-19T04:41:45;4.80;;;2.90;;
42246;SDS011;27913;42.722;23.268;2022-08-19T04:44:30;6.53;;;2.90;;
42246;SDS011;27913;42.722;23.268;2022-08-19T04:49:26;6.22;;;3.10;;
42246;SDS011;27913;42.722;23.268;2022-08-19T04:51:52;6.03;;;2.75;;
42246;SDS011;27913;42.722;23.268;2022-08-19T04:54:19;6.97;;;3.90;;
42246;SDS011;27913;42.722;23.268;2022-08-19T04:56:50;5.72;;;3.17;;
42246;SDS011;27913;42.722;23.268;2022-08-19T04:59:17;6.45;;;2.95;;
42246;SDS011;27913;42.722;23.268;2022-08-19T05:01:45;7.63;;;3.40;;
42246;SDS011;27913;42.722;23.268;2022-08-19T05:04:15;6.07;;;3.40;;
42246;SDS011;27913;42.722;23.268;2022-08-19T05:06:44;9.50;;;3.58;;
42246;SDS011;27913;42.722;23.268;2022-08-19T05:09:09;7.18;;;3.60;;
42246;SDS011;27913;42.722;23.268;2022-08-19T05:11:35;7.60;;;3.03;;
42246;SDS011;27913;42.722;23.268;2022-08-19T05:14:05;5.38;;;3.17;;
42246;SDS011;27913;42.722;23.268;2022-08-19T05:16:32;6.93;;;3.92;;
42246;SDS011;27913;42.722;23.268;2022-08-19T05:18:57;6.65;;;3.92;;
42246;SDS011;27913;42.722;23.268;2022-08-19T05:21:41;6.30;;;3.53;;
42246;SDS011;27913;42.722;23.268;2022-08-19T05:24:26;7.15;;;3.50;;
42246;SDS011;27913;42.722;23.268;2022-08-19T05:26:53;6.65;;;3.53;;
42246;SDS011;27913;42.722;23.268;2022-08-19T05:29:21;6.18;;;3.67;;
42246;SDS011;27913;42.722;23.268;2022-08-19T05:31:48;6.72;;;3.85;;
42246;SDS011;27913;42.722;23.268;2022-08-19T05:34:17;8.65;;;4.80;;
42246;SDS011;27913;42.722;23.268;2022-08-19T05:36:47;7.50;;;4.30;;
42246;SDS011;27913;42.722;23.268;2022-08-19T05:39:14;8.60;;;4.32;;
42246;SDS011;27913;42.722;23.268;2022-08-19T05:41:43;10.80;;;4.30;;
42246;SDS011;27913;42.722;23.268;2022-08-19T05:44:13;8.30;;;4.32;;
42246;SDS011;27913;42.722;23.268;2022-08-19T05:46:40;9.77;;;4.28;;
42246;SDS011;27913;42.722;23.268;2022-08-19T05:49:08;7.22;;;3.70;;
42246;SDS011;27913;42.722;23.268;2022-08-19T05:51:34;8.27;;;3.95;;
42246;SDS011;27913;42.722;23.268;2022-08-19T05:54:02;7.50;;;4.45;;
42246;SDS011;27913;42.722;23.268;2022-08-19T05:56:29;12.45;;;3.95;;
42246;SDS011;27913;42.722;23.268;2022-08-19T05:58:59;7.10;;;3.90;;
42246;SDS011;27913;42.722;23.268;2022-08-19T06:01:26;8.38;;;4.18;;
42246;SDS011;27913;42.722;23.268;2022-08-19T06:03:51;6.35;;;3.42;;
42246;SDS011;27913;42.722;23.268;2022-08-19T06:06:17;6.93;;;3.83;;
42246;SDS011;27913;42.722;23.268;2022-08-19T06:08:43;8.50;;;3.60;;
42246;SDS011;27913;42.722;23.268;2022-08-19T06:13:50;5.95;;;3.45;;
42246;SDS011;27913;42.722;23.268;2022-08-19T06:16:18;6.28;;;3.35;;
42246;SDS011;27913;42.722;23.268;2022-08-19T06:18:53;6.43;;;3.22;;
42246;SDS011;27913;42.722;23.268;2022-08-19T06:21:22;6.63;;;3.45;;
42246;SDS011;27913;42.722;23.268;2022-08-19T06:23:49;6.35;;;3.30;;
42246;SDS011;27913;42.722;23.268;2022-08-19T06:26:17;6.15;;;3.15;;
42246;SDS011;27913;42.722;23.268;2022-08-19T06:28:44;6.80;;;3.72;;
42246;SDS011;27913;42.722;23.268;2022-08-19T06:31:19;5.65;;;3.13;;
42246;SDS011;27913;42.722;23.268;2022-08-19T06:33:47;6.18;;;2.88;;
42246;SDS011;27913;42.722;23.268;2022-08-19T06:36:21;8.40;;;3.90;;
42246;SDS011;27913;42.722;23.268;2022-08-19T06:38:56;6.88;;;3.63;;
42246;SDS011;27913;42.722;23.268;2022-08-19T06:41:23;6.32;;;3.42;;
42246;SDS011;27913;42.722;23.268;2022-08-19T06:43:52;6.20;;;3.40;;
42246;SDS011;27913;42.722;23.268;2022-08-19T06:46:18;7.32;;;3.88;;
42246;SDS011;27913;42.722;23.268;2022-08-19T06:48:44;6.90;;;3.65;;
42246;SDS011;27913;42.722;23.268;2022-08-19T06:51:11;5.45;;;3.10;;
42246;SDS011;27913;42.722;23.268;2022-08-19T06:53:40;6.97;;;3.30;;
42246;SDS011;27913;42.722;23.268;2022-08-19T06:56:06;8.02;;;3.80;;
42246;SDS011;27913;42.722;23.268;2022-08-19T06:58:32;7.20;;;3.83;;
42246;SDS011;27913;42.722;23.268;2022-08-19T07:01:04;7.93;;;3.80;;
42246;SDS011;27913;42.722;23.268;2022-08-19T07:03:30;7.70;;;3.63;;
42246;SDS011;27913;42.722;23.268;2022-08-19T07:06:07;5.95;;;3.65;;
42246;SDS011;27913;42.722;23.268;2022-08-19T07:08:35;7.35;;;4.00;;
42246;SDS011;27913;42.722;23.268;2022-08-19T07:11:02;10.68;;;4.13;;
42246;SDS011;27913;42.722;23.268;2022-08-19T07:13:32;10.43;;;4.33;;
42246;SDS011;27913;42.722;23.268;2022-08-19T07:16:08;7.53;;;3.60;;
42246;SDS011;27913;42.722;23.268;2022-08-19T07:18:36;7.28;;;3.78;;
42246;SDS011;27913;42.722;23.268;2022-08-19T07:21:06;8.18;;;4.35;;
42246;SDS011;27913;42.722;23.268;2022-08-19T07:23:34;8.48;;;3.70;;
42246;SDS011;27913;42.722;23.268;2022-08-19T07:26:09;7.15;;;3.55;;
42246;SDS011;27913;42.722;23.268;2022-08-19T07:28:46;7.15;;;3.78;;
42246;SDS011;27913;42.722;23.268;2022-08-19T07:31:15;7.53;;;3.40;;
42246;SDS011;27913;42.722;23.268;2022-08-19T07:33:43;8.53;;;3.90;;
42246;SDS011;27913;42.722;23.268;2022-08-19T07:36:11;6.75;;;3.45;;
42246;SDS011;27913;42.722;23.268;2022-08-19T07:38:40;8.02;;;4.40;;
42246;SDS011;27913;42.722;23.268;2022-08-19T07:41:09;7.45;;;3.97;;
42246;SDS011;27913;42.722;23.268;2022-08-19T07:43:37;6.80;;;3.78;;
42246;SDS011;27913;42.722;23.268;2022-08-19T07:46:02;9.45;;;3.92;;
42246;SDS011;27913;42.722;23.268;2022-08-19T07:48:28;9.68;;;4.13;;
42246;SDS011;27913;42.722;23.268;2022-08-19T07:50:54;7.53;;;3.80;;
42246;SDS011;27913;42.722;23.268;2022-08-19T07:53:22;8.05;;;3.67;;
42246;SDS011;27913;42.722;23.268;2022-08-19T07:55:49;6.28;;;3.65;;
42246;SDS011;27913;42.722;23.268;2022-08-19T07:58:17;6.57;;;3.60;;
42246;SDS011;27913;42.722;23.268;2022-08-19T08:00:45;9.18;;;3.60;;
42246;SDS011;27913;42.722;23.268;2022-08-19T08:03:13;7.18;;;3.40;;
42246;SDS011;27913;42.722;23.268;2022-08-19T08:05:41;12.73;;;4.03;;
42246;SDS011;27913;42.722;23.268;2022-08-19T08:08:25;6.03;;;3.38;;
42246;SDS011;27913;42.722;23.268;2022-08-19T08:11:09;8.75;;;3.67;;
42246;SDS011;27913;42.722;23.268;2022-08-19T08:13:35;6.00;;;3.30;;
42246;SDS011;27913;42.722;23.268;2022-08-19T08:16:01;6.18;;;3.38;;
42246;SDS011;27913;42.722;23.268;2022-08-19T08:18:27;6.72;;;3.03;;
42246;SDS011;27913;42.722;23.268;2022-08-19T08:20:54;5.82;;;3.28;;
42246;SDS011;27913;42.722;23.268;2022-08-19T08:23:22;10.40;;;4.13;;
42246;SDS011;27913;42.722;23.268;2022-08-19T08:25:50;7.20;;;3.53;;
42246;SDS011;27913;42.722;23.268;2022-08-19T08:28:17;9.80;;;3.47;;
42246;SDS011;27913;42.722;23.268;2022-08-19T08:30:46;5.72;;;2.88;;
42246;SDS011;27913;42.722;23.268;2022-08-19T08:33:16;6.20;;;3.60;;
42246;SDS011;27913;42.722;23.268;2022-08-19T08:35:44;6.95;;;3.58;;
42246;SDS011;27913;42.722;23.268;2022-08-19T08:38:10;6.28;;;3.47;;
42246;SDS011;27913;42.722;23.268;2022-08-19T08:40:47;6.95;;;3.17;;
42246;SDS011;27913;42.722;23.268;2022-08-19T08:46:06;5.68;;;3.33;;
42246;SDS011;27913;42.722;23.268;2022-08-19T08:48:39;6.25;;;3.20;;
42246;SDS011;27913;42.722;23.268;2022-08-19T08:51:16;7.82;;;3.80;;
42246;SDS011;27913;42.722;23.268;2022-08-19T08:54:07;7.53;;;3.00;;
42246;SDS011;27913;42.722;23.268;2022-08-19T08:56:37;7.18;;;2.80;;
42246;SDS011;27913;42.722;23.268;2022-08-19T08:59:05;5.35;;;2.83;;
42246;SDS011;27913;42.722;23.268;2022-08-19T09:01:42;7.63;;;2.90;;
42246;SDS011;27913;42.722;23.268;2022-08-19T09:04:07;5.90;;;2.95;;
42246;SDS011;27913;42.722;23.268;2022-08-19T09:14:50;5.47;;;2.45;;
42246;SDS011;27913;42.722;23.268;2022-08-19T09:17:30;5.43;;;2.60;;
42246;SDS011;27913;42.722;23.268;2022-08-19T09:20:03;8.43;;;2.67;;
42246;SDS011;27913;42.722;23.268;2022-08-19T09:22:36;6.13;;;2.40;;
42246;SDS011;27913;42.722;23.268;2022-08-19T09:25:02;4.95;;;2.83;;
42246;SDS011;27913;42.722;23.268;2022-08-19T09:27:29;4.32;;;2.42;;
42246;SDS011;27913;42.722;23.268;2022-08-19T09:29:55;4.30;;;2.30;;
42246;SDS011;27913;42.722;23.268;2022-08-19T09:32:21;4.22;;;2.20;;
42246;SDS011;27913;42.722;23.268;2022-08-19T09:34:47;3.47;;;2.13;;
42246;SDS011;27913;42.722;23.268;2022-08-19T09:37:13;6.18;;;2.60;;
42246;SDS011;27913;42.722;23.268;2022-08-19T09:39:39;3.35;;;2.00;;
42246;SDS011;27913;42.722;23.268;2022-08-19T09:42:05;4.35;;;2.20;;
42246;SDS011;27913;42.722;23.268;2022-08-19T09:44:41;5.03;;;2.20;;
42246;SDS011;27913;42.722;23.268;2022-08-19T09:47:08;3.97;;;2.10;;
42246;SDS011;27913;42.722;23.268;2022-08-19T09:49:36;4.90;;;2.38;;
42246;SDS011;27913;42.722;23.268;2022-08-19T09:52:02;3.33;;;1.95;;
42246;SDS011;27913;42.722;23.268;2022-08-19T09:54:28;5.07;;;2.70;;
42246;SDS011;27913;42.722;23.268;2022-08-19T09:56:54;4.60;;;2.22;;
42246;SDS011;27913;42.722;23.268;2022-08-19T09:59:22;5.80;;;2.35;;
42246;SDS011;27913;42.722;23.268;2022-08-19T10:01:48;3.92;;;2.15;;
42246;SDS011;27913;42.722;23.268;2022-08-19T10:04:16;5.97;;;2.38;;
42246;SDS011;27913;42.722;23.268;2022-08-19T10:06:41;4.35;;;2.00;;
42246;SDS011;27913;42.722;23.268;2022-08-19T10:09:07;4.07;;;2.42;;
42246;SDS011;27913;42.722;23.268;2022-08-19T10:11:35;5.68;;;2.10;;
42246;SDS011;27913;42.722;23.268;2022-08-19T10:14:02;5.05;;;2.10;;
42246;SDS011;27913;42.722;23.268;2022-08-19T10:16:30;3.35;;;2.05;;
42246;SDS011;27913;42.722;23.268;2022-08-19T10:18:56;3.53;;;2.10;;
42246;SDS011;27913;42.722;23.268;2022-08-19T10:21:27;3.58;;;1.85;;
42246;SDS011;27913;42.722;23.268;2022-08-19T10:23:55;5.47;;;2.60;;
42246;SDS011;27913;42.722;23.268;2022-08-19T10:26:26;5.78;;;2.38;;
42246;SDS011;27913;42.722;23.268;2022-08-19T10:28:56;3.60;;;2.25;;
42246;SDS011;27913;42.722;23.268;2022-08-19T10:31:29;5.65;;;2.67;;
42246;SDS011;27913;42.722;23.268;2022-08-19T10:33:56;4.72;;;2.78;;
42246;SDS011;27913;42.722;23.268;2022-08-19T10:36:24;4.40;;;2.50;;
42246;SDS011;27913;42.722;23.268;2022-08-19T10:38:53;4.13;;;2.30;;
42246;SDS011;27913;42.722;23.268;2022-08-19T10:41:23;6.83;;;2.60;;
42246;SDS011;27913;42.722;23.268;2022-08-19T10:43:54;4.65;;;2.60;;
42246;SDS011;27913;42.722;23.268;2022-08-19T10:46:22;3.85;;;2.28;;
42246;SDS011;27913;42.722;23.268;2022-08-19T10:48:49;5.93;;;2.70;;
42246;SDS011;27913;42.722;23.268;2022-08-19T10:51:15;4.38;;;2.50;;
42246;SDS011;27913;42.722;23.268;2022-08-19T10:54:00;5.82;;;2.97;;
42246;SDS011;27913;42.722;23.268;2022-08-19T10:56:26;5.57;;;2.60;;
42246;SDS011;27913;42.722;23.268;2022-08-19T10:59:11;5.22;;;2.92;;
42246;SDS011;27913;42.722;23.268;2022-08-19T11:01:38;5.00;;;2.85;;
42246;SDS011;27913;42.722;23.268;2022-08-19T11:04:05;5.90;;;2.90;;
42246;SDS011;27913;42.722;23.268;2022-08-19T11:06:35;4.00;;;2.50;;
42246;SDS011;27913;42.722;23.268;2022-08-19T11:09:02;4.47;;;2.70;;
42246;SDS011;27913;42.722;23.268;2022-08-19T11:11:28;4.28;;;2.60;;
42246;SDS011;27913;42.722;23.268;2022-08-19T11:13:54;6.20;;;2.80;;
42246;SDS011;27913;42.722;23.268;2022-08-19T11:16:23;4.70;;;2.40;;
42246;SDS011;27913;42.722;23.268;2022-08-19T11:18:52;5.18;;;3.28;;
42246;SDS011;27913;42.722;23.268;2022-08-19T11:23:48;6.85;;;2.88;;
42246;SDS011;27913;42.722;23.268;2022-08-19T11:26:15;4.57;;;2.75;;
42246;SDS011;27913;42.722;23.268;2022-08-19T11:28:42;4.57;;;2.85;;
42246;SDS011;27913;42.722;23.268;2022-08-19T11:31:11;5.20;;;2.80;;
42246;SDS011;27913;42.722;23.268;2022-08-19T11:33:38;8.05;;;3.45;;
42246;SDS011;27913;42.722;23.268;2022-08-19T11:36:04;5.97;;;3.03;;
42246;SDS011;27913;42.722;23.268;2022-08-19T11:38:30;4.13;;;2.30;;
42246;SDS011;27913;42.722;23.268;2022-08-19T11:40:57;5.07;;;2.60;;
42246;SDS011;27913;42.722;23.268;2022-08-19T11:43:24;6.13;;;2.33;;
42246;SDS011;27913;42.722;23.268;2022-08-19T11:45:52;5.65;;;2.90;;
42246;SDS011;27913;42.722;23.268;2022-08-19T11:48:18;5.25;;;2.42;;
42246;SDS011;27913;42.722;23.268;2022-08-19T11:50:47;5.88;;;2.88;;
42246;SDS011;27913;42.722;23.268;2022-08-19T11:53:19;4.82;;;2.60;;
42246;SDS011;27913;42.722;23.268;2022-08-19T11:55:48;4.20;;;2.50;;
42246;SDS011;27913;42.722;23.268;2022-08-19T11:58:15;6.72;;;2.55;;
42246;SDS011;27913;42.722;23.268;2022-08-19T12:00:42;12.70;;;3.28;;
42246;SDS011;27913;42.722;23.268;2022-08-19T12:03:10;4.97;;;3.00;;
42246;SDS011;27913;42.722;23.268;2022-08-19T12:05:38;6.75;;;3.05;;
42246;SDS011;27913;42.722;23.268;2022-08-19T12:08:05;5.10;;;3.13;;
42246;SDS011;27913;42.722;23.268;2022-08-19T12:10:31;4.90;;;3.00;;
42246;SDS011;27913;42.722;23.268;2022-08-19T12:12:58;5.05;;;3.15;;
42246;SDS011;27913;42.722;23.268;2022-08-19T12:15:23;5.15;;;3.50;;
42246;SDS011;27913;42.722;23.268;2022-08-19T12:17:49;5.63;;;3.28;;
42246;SDS011;27913;42.722;23.268;2022-08-19T12:20:14;5.13;;;2.80;;
42246;SDS011;27913;42.722;23.268;2022-08-19T12:22:42;6.07;;;3.17;;
42246;SDS011;27913;42.722;23.268;2022-08-19T12:25:11;5.38;;;2.80;;
42246;SDS011;27913;42.722;23.268;2022-08-19T12:27:37;5.93;;;2.88;;
42246;SDS011;27913;42.722;23.268;2022-08-19T12:30:07;5.55;;;2.80;;
42246;SDS011;27913;42.722;23.268;2022-08-19T12:32:35;4.38;;;2.75;;
42246;SDS011;27913;42.722;23.268;2022-08-19T12:35:01;7.35;;;2.92;;
42246;SDS011;27913;42.722;23.268;2022-08-19T12:37:27;6.72;;;3.42;;
42246;SDS011;27913;42.722;23.268;2022-08-19T12:39:53;5.15;;;2.58;;
42246;SDS011;27913;42.722;23.268;2022-08-19T12:42:19;6.70;;;3.45;;
42246;SDS011;27913;42.722;23.268;2022-08-19T12:44:46;5.07;;;2.72;;
42246;SDS011;27913;42.722;23.268;2022-08-19T12:47:12;6.05;;;2.95;;
42246;SDS011;27913;42.722;23.268;2022-08-19T12:49:42;5.30;;;3.10;;
42246;SDS011;27913;42.722;23.268;2022-08-19T12:52:09;8.20;;;2.80;;
42246;SDS011;27913;42.722;23.268;2022-08-19T12:54:35;5.63;;;3.08;;
42246;SDS011;27913;42.722;23.268;2022-08-19T12:57:05;7.63;;;3.42;;
42246;SDS011;27913;42.722;23.268;2022-08-19T13:01:58;5.63;;;2.53;;
42246;SDS011;27913;42.722;23.268;2022-08-19T13:04:24;5.85;;;2.97;;
42246;SDS011;27913;42.722;23.268;2022-08-19T13:06:49;5.40;;;3.28;;
42246;SDS011;27913;42.722;23.268;2022-08-19T13:09:15;6.63;;;3.13;;
42246;SDS011;27913;42.722;23.268;2022-08-19T13:11:41;7.55;;;3.53;;
42246;SDS011;27913;42.722;23.268;2022-08-19T13:14:08;5.30;;;3.00;;
42246;SDS011;27913;42.722;23.268;2022-08-19T13:16:35;5.47;;;3.20;;
42246;SDS011;27913;42.722;23.268;2022-08-19T13:19:01;6.25;;;3.33;;
42246;SDS011;27913;42.722;23.268;2022-08-19T13:21:29;5.03;;;3.20;;
42246;SDS011;27913;42.722;23.268;2022-08-19T13:23:55;6.15;;;3.10;;
42246;SDS011;27913;42.722;23.268;2022-08-19T13:26:22;9.32;;;3.45;;
42246;SDS011;27913;42.722;23.268;2022-08-19T13:28:48;5.80;;;3.33;;
42246;SDS011;27913;42.722;23.268;2022-08-19T13:31:33;4.60;;;2.83;;
42246;SDS011;27913;42.722;23.268;2022-08-19T13:34:19;5.75;;;3.10;;
42246;SDS011;27913;42.722;23.268;2022-08-19T13:36:51;6.13;;;3.08;;
42246;SDS011;27913;42.722;23.268;2022-08-19T13:39:18;6.10;;;3.00;;
42246;SDS011;27913;42.722;23.268;2022-08-19T13:41:45;5.80;;;3.30;;
42246;SDS011;27913;42.722;23.268;2022-08-19T13:44:15;5.07;;;3.00;;
42246;SDS011;27913;42.722;23.268;2022-08-19T13:46:43;6.13;;;2.92;;
42246;SDS011;27913;42.722;23.268;2022-08-19T13:49:10;6.80;;;3.20;;
42246;SDS011;27913;42.722;23.268;2022-08-19T13:51:37;7.40;;;3.10;;
42246;SDS011;27913;42.722;23.268;2022-08-19T13:54:05;5.97;;;3.33;;
42246;SDS011;27913;42.722;23.268;2022-08-19T13:56:31;6.38;;;3.45;;
42246;SDS011;27913;42.722;23.268;2022-08-19T13:58:57;7.05;;;3.35;;
42246;SDS011;27913;42.722;23.268;2022-08-19T14:01:22;5.18;;;2.80;;
42246;SDS011;27913;42.722;23.268;2022-08-19T14:03:48;6.00;;;2.90;;
42246;SDS011;27913;42.722;23.268;2022-08-19T14:06:14;5.38;;;3.15;;
42246;SDS011;27913;42.722;23.268;2022-08-19T14:08:41;7.05;;;3.50;;
42246;SDS011;27913;42.722;23.268;2022-08-19T14:11:07;6.30;;;3.30;;
42246;SDS011;27913;42.722;23.268;2022-08-19T14:13:34;4.88;;;2.95;;
42246;SDS011;27913;42.722;23.268;2022-08-19T14:16:01;5.20;;;2.90;;
42246;SDS011;27913;42.722;23.268;2022-08-19T14:18:32;6.65;;;2.45;;
42246;SDS011;27913;42.722;23.268;2022-08-19T14:20:58;5.75;;;3.35;;
42246;SDS011;27913;42.722;23.268;2022-08-19T14:23:23;5.25;;;3.28;;
42246;SDS011;27913;42.722;23.268;2022-08-19T14:25:49;6.75;;;3.70;;
42246;SDS011;27913;42.722;23.268;2022-08-19T14:28:14;5.90;;;3.47;;
42246;SDS011;27913;42.722;23.268;2022-08-19T14:30:41;7.88;;;4.03;;
42246;SDS011;27913;42.722;23.268;2022-08-19T14:33:09;5.53;;;3.22;;
42246;SDS011;27913;42.722;23.268;2022-08-19T14:38:14;6.25;;;3.72;;
42246;SDS011;27913;42.722;23.268;2022-08-19T14:40:41;5.60;;;3.55;;
42246;SDS011;27913;42.722;23.268;2022-08-19T14:43:07;4.72;;;3.20;;
42246;SDS011;27913;42.722;23.268;2022-08-19T14:48:08;5.03;;;3.42;;
42246;SDS011;27913;42.722;23.268;2022-08-19T14:50:34;7.57;;;3.40;;
42246;SDS011;27913;42.722;23.268;2022-08-19T14:53:03;5.47;;;3.42;;
42246;SDS011;27913;42.722;23.268;2022-08-19T14:55:32;4.78;;;2.92;;
42246;SDS011;27913;42.722;23.268;2022-08-19T14:57:58;8.07;;;3.50;;
42246;SDS011;27913;42.722;23.268;2022-08-19T15:00:24;5.90;;;3.42;;
42246;SDS011;27913;42.722;23.268;2022-08-19T15:02:50;7.55;;;3.33;;
42246;SDS011;27913;42.722;23.268;2022-08-19T15:05:16;7.72;;;3.00;;
42246;SDS011;27913;42.722;23.268;2022-08-19T15:07:42;7.95;;;3.67;;